Time;durP1;ratioP1;P1;durP2;ratioP2;P2;SDS_P1;SDS_P2;PMS_P1;PMS_P2;Temp;Humidity;BMP_temperature;BMP_pressure;BME280_temperature;BME280_humidity;BME280_pressure;Samples;Min_cycle;Max_cycle;Signal;HPM_P1;HPM_P2
2022/11/26 00:00:19;;;;;;;13.13;8.97;;;7.20;99.90;;;;;;5029792;28;20240;-85
2022/11/26 00:02:45;;;;;;;12.67;8.80;;;7.20;99.90;;;;;;5029188;28;20202;-87
2022/11/26 00:05:15;;;;;;;11.43;7.97;;;7.10;99.90;;;;;;5029489;28;20194;-87
2022/11/26 00:07:44;;;;;;;11.23;8.93;;;7.10;99.90;;;;;;5029525;28;20204;-86
2022/11/26 00:10:17;;;;;;;8.87;7.93;;;7.10;99.90;;;;;;5028793;28;20188;-86
2022/11/26 00:12:44;;;;;;;10.90;7.63;;;7.00;99.90;;;;;;5029485;28;20188;-86
2022/11/26 00:15:30;;;;;;;11.10;7.77;;;7.10;99.90;;;;;;5027992;28;20570;-86
2022/11/26 00:17:56;;;;;;;11.20;8.10;;;7.10;99.90;;;;;;5018769;28;20193;-85
2022/11/26 00:20:28;;;;;;;11.13;7.83;;;7.10;99.90;;;;;;5028552;28;20205;-85
2022/11/26 00:23:05;;;;;;;12.67;8.00;;;7.20;99.90;;;;;;5029328;28;20717;-84
2022/11/26 00:25:39;;;;;;;11.87;7.87;;;7.30;99.90;;;;;;5031228;28;20185;-86
2022/11/26 00:28:22;;;;;;;11.67;7.80;;;7.30;99.90;;;;;;5030052;28;20204;-83
2022/11/26 00:30:48;;;;;;;10.17;6.90;;;7.40;99.90;;;;;;4997771;28;20631;-85
2022/11/26 00:33:14;;;;;;;11.90;7.60;;;7.40;99.90;;;;;;5029268;28;20185;-85
2022/11/26 00:35:39;;;;;;;11.23;8.00;;;7.40;99.90;;;;;;5027689;28;20200;-85
2022/11/26 00:38:08;;;;;;;11.20;7.40;;;7.30;99.90;;;;;;5028302;28;20190;-85
2022/11/26 00:40:34;;;;;;;10.80;6.80;;;7.30;99.90;;;;;;5021025;28;20213;-84
2022/11/26 00:43:00;;;;;;;11.57;7.47;;;7.30;99.90;;;;;;5028903;28;20277;-86
2022/11/26 00:45:28;;;;;;;16.33;7.57;;;7.30;99.90;;;;;;5027085;28;20193;-86
2022/11/26 00:47:56;;;;;;;11.33;7.10;;;7.30;99.90;;;;;;5027340;28;20189;-87
2022/11/26 00:50:25;;;;;;;9.27;6.97;;;7.30;99.90;;;;;;5028741;28;20204;-85
2022/11/26 00:52:53;;;;;;;9.07;6.17;;;7.40;99.90;;;;;;5028478;28;20732;-86
2022/11/26 00:55:27;;;;;;;9.70;7.77;;;7.40;99.90;;;;;;5028401;28;20249;-87
2022/11/26 00:57:53;;;;;;;9.73;7.40;;;7.50;99.90;;;;;;5028093;28;20213;-88
2022/11/26 01:00:23;;;;;;;10.63;7.40;;;7.70;99.90;;;;;;5027031;28;20305;-87
2022/11/26 01:02:50;;;;;;;11.07;6.90;;;7.70;99.90;;;;;;5026939;28;20193;-86
2022/11/26 01:05:16;;;;;;;8.83;6.63;;;7.60;99.90;;;;;;5027645;28;20205;-87
2022/11/26 01:07:43;;;;;;;10.53;6.90;;;7.60;99.90;;;;;;5028057;28;20216;-86
2022/11/26 01:10:15;;;;;;;12.00;7.30;;;7.60;99.90;;;;;;5026986;28;20190;-87
2022/11/26 01:12:40;;;;;;;11.27;6.70;;;7.70;99.90;;;;;;5004034;28;20248;-86
2022/11/26 01:15:06;;;;;;;10.97;6.90;;;7.70;99.90;;;;;;5008546;28;20653;-86
2022/11/26 01:17:32;;;;;;;9.77;6.60;;;7.70;99.90;;;;;;5018311;28;20193;-85
2022/11/26 01:19:58;;;;;;;9.77;6.53;;;7.80;99.90;;;;;;5027874;28;20205;-86
2022/11/26 01:22:24;;;;;;;8.93;7.43;;;7.80;99.90;;;;;;5028680;28;20194;-85
2022/11/26 01:24:50;;;;;;;8.97;7.07;;;7.90;99.90;;;;;;5028067;28;20190;-87
2022/11/26 01:27:18;;;;;;;9.23;6.93;;;7.90;99.90;;;;;;5028600;28;20188;-86
2022/11/26 01:29:44;;;;;;;13.17;6.53;;;7.80;99.90;;;;;;5009077;28;20182;-86
2022/11/26 01:32:10;;;;;;;9.37;6.77;;;7.90;99.90;;;;;;5025100;28;20200;-85
2022/11/26 01:34:36;;;;;;;8.40;6.93;;;8.00;99.90;;;;;;5028430;28;20193;-85
2022/11/26 01:37:02;;;;;;;8.50;7.33;;;7.90;99.90;;;;;;5028530;28;20185;-86
2022/11/26 01:39:28;;;;;;;11.37;7.33;;;7.90;99.90;;;;;;5028486;28;20241;-86
2022/11/26 01:41:59;;;;;;;11.40;7.00;;;7.90;99.90;;;;;;5028662;28;20202;-84
2022/11/26 01:44:28;;;;;;;8.17;7.20;;;7.90;99.90;;;;;;5029191;28;20185;-85
2022/11/26 01:46:54;;;;;;;12.77;6.80;;;7.70;99.90;;;;;;5027850;28;20189;-86
2022/11/26 01:49:24;;;;;;;11.17;6.87;;;7.70;99.90;;;;;;5027926;28;20264;-86
2022/11/26 01:52:16;;;;;;;11.80;7.83;;;7.80;99.90;;;;;;5028465;28;20225;-85
2022/11/26 01:54:43;;;;;;;10.83;7.57;;;7.70;99.90;;;;;;5028785;28;20708;-86
2022/11/26 01:57:11;;;;;;;10.27;6.67;;;7.50;99.90;;;;;;5031112;28;20181;-85
2022/11/26 01:59:40;;;;;;;9.93;7.40;;;7.50;99.90;;;;;;5029805;28;20251;-85
2022/11/26 02:02:06;;;;;;;11.17;7.13;;;7.40;99.90;;;;;;5031603;28;20205;-86
2022/11/26 02:04:40;;;;;;;12.70;7.57;;;7.30;99.90;;;;;;5031552;28;20224;-86
2022/11/26 02:07:06;;;;;;;15.00;8.23;;;7.40;99.90;;;;;;5011523;28;20524;-86
2022/11/26 02:09:31;;;;;;;9.77;7.03;;;7.40;99.90;;;;;;5031747;28;20196;-86
2022/11/26 02:11:57;;;;;;;10.57;7.47;;;7.40;99.90;;;;;;5028621;28;20221;-85
2022/11/26 02:14:31;;;;;;;10.60;7.27;;;7.30;99.90;;;;;;5032150;28;20209;-85
2022/11/26 02:17:02;;;;;;;13.17;7.57;;;7.30;99.90;;;;;;5031811;28;20791;-86
2022/11/26 02:19:59;;;;;;;8.57;7.13;;;7.30;99.90;;;;;;5031047;28;20220;-85
2022/11/26 02:22:53;;;;;;;9.90;7.50;;;7.40;99.90;;;;;;5031282;28;20210;-85
2022/11/26 02:25:44;;;;;;;12.10;6.87;;;7.40;99.90;;;;;;5013298;28;20193;-85
2022/11/26 02:28:30;;;;;;;10.13;7.00;;;7.40;99.90;;;;;;5029604;28;20186;-84
2022/11/26 02:31:08;;;;;;;8.90;7.00;;;7.40;99.90;;;;;;5031383;28;20205;-85
2022/11/26 02:33:49;;;;;;;9.67;6.77;;;7.50;99.90;;;;;;5031108;28;20180;-86
2022/11/26 02:36:32;;;;;;;15.07;7.17;;;7.40;99.90;;;;;;5030795;28;20207;-87
2022/11/26 02:39:10;;;;;;;8.57;6.40;;;7.40;99.90;;;;;;5030341;28;20336;-86
2022/11/26 02:41:45;;;;;;;10.90;7.23;;;7.40;99.90;;;;;;5030048;28;20205;-86
2022/11/26 02:44:12;;;;;;;7.57;5.73;;;7.40;99.90;;;;;;5029928;28;20197;-85
2022/11/26 02:46:40;;;;;;;9.83;6.70;;;7.40;99.90;;;;;;5030790;28;20274;-84
2022/11/26 02:49:08;;;;;;;8.93;7.40;;;7.30;99.90;;;;;;5031195;28;20189;-85
2022/11/26 02:51:34;;;;;;;11.30;6.90;;;7.20;99.90;;;;;;5032108;28;20217;-85
2022/11/26 02:54:00;;;;;;;11.97;7.57;;;7.20;99.90;;;;;;5031297;28;20190;-86
2022/11/26 02:56:28;;;;;;;13.37;7.40;;;7.10;99.90;;;;;;5031576;28;20186;-85
2022/11/26 02:58:55;;;;;;;10.40;7.60;;;7.20;99.90;;;;;;5020423;28;20196;-85
2022/11/26 03:01:33;;;;;;;11.43;7.07;;;7.20;99.90;;;;;;5031816;28;20217;-85
2022/11/26 03:04:13;;;;;;;14.67;7.80;;;7.30;99.90;;;;;;5030246;28;20197;-86
2022/11/26 03:06:40;;;;;;;12.17;7.07;;;7.30;99.90;;;;;;5030190;28;20594;-85
2022/11/26 03:09:06;;;;;;;14.13;6.97;;;7.20;99.90;;;;;;5030334;28;20189;-86
2022/11/26 03:11:32;;;;;;;9.17;6.80;;;7.20;99.90;;;;;;5026980;28;20194;-84
2022/11/26 03:13:58;;;;;;;15.33;7.43;;;7.20;99.90;;;;;;5013056;28;20185;-85
2022/11/26 03:16:23;;;;;;;13.70;6.97;;;7.20;99.90;;;;;;5031144;28;20177;-85
2022/11/26 03:18:49;;;;;;;11.33;7.47;;;7.20;99.90;;;;;;5029903;28;20189;-85
2022/11/26 03:21:15;;;;;;;11.30;7.07;;;7.20;99.90;;;;;;5030970;28;20426;-86
2022/11/26 03:23:40;;;;;;;11.07;6.40;;;7.20;99.90;;;;;;5030244;28;20205;-86
2022/11/26 03:26:06;;;;;;;9.17;6.37;;;7.30;99.90;;;;;;5012775;28;20228;-86
2022/11/26 03:28:32;;;;;;;11.73;7.30;;;7.30;99.90;;;;;;5030267;28;20242;-86
2022/11/26 03:30:58;;;;;;;11.30;6.97;;;7.40;99.90;;;;;;5023177;28;20224;-86
2022/11/26 03:33:23;;;;;;;11.30;6.87;;;7.40;99.90;;;;;;5013111;28;20197;-85
2022/11/26 03:35:49;;;;;;;11.07;6.60;;;7.50;99.90;;;;;;5030249;28;20297;-83
2022/11/26 03:38:15;;;;;;;9.43;6.77;;;7.40;99.90;;;;;;5029298;28;20200;-85
2022/11/26 03:40:41;;;;;;;17.33;7.33;;;7.50;99.90;;;;;;5025019;28;20217;-85
2022/11/26 03:43:07;;;;;;;11.80;6.67;;;7.40;99.90;;;;;;5025618;28;20217;-86
2022/11/26 03:45:33;;;;;;;13.33;7.53;;;7.30;99.90;;;;;;5025840;28;20181;-86
2022/11/26 03:47:59;;;;;;;10.30;6.70;;;7.40;99.90;;;;;;5021800;28;20189;-86
2022/11/26 03:50:25;;;;;;;14.50;7.40;;;7.40;99.90;;;;;;5025105;28;20228;-86
2022/11/26 03:52:50;;;;;;;9.87;6.90;;;7.50;99.90;;;;;;5025154;28;20197;-85
2022/11/26 03:55:16;;;;;;;13.63;7.20;;;7.40;99.90;;;;;;5026184;28;20211;-85
2022/11/26 03:57:42;;;;;;;11.50;6.90;;;7.50;99.90;;;;;;5025967;28;20547;-86
2022/11/26 04:00:08;;;;;;;12.00;7.20;;;7.40;99.90;;;;;;5025387;28;20209;-85
2022/11/26 04:02:35;;;;;;;10.10;7.27;;;7.50;99.90;;;;;;5023821;28;20235;-86
2022/11/26 04:05:01;;;;;;;18.33;7.50;;;7.40;99.90;;;;;;5019587;28;20284;-85
2022/11/26 04:07:26;;;;;;;14.23;6.57;;;7.40;99.90;;;;;;5025392;28;20228;-86
2022/11/26 04:09:52;;;;;;;8.47;6.50;;;7.40;99.90;;;;;;5023173;28;20271;-85
2022/11/26 04:12:18;;;;;;;11.33;7.33;;;7.40;99.90;;;;;;5024966;28;20221;-86
2022/11/26 04:14:44;;;;;;;9.47;7.07;;;7.50;99.90;;;;;;5024331;28;20189;-87
2022/11/26 04:17:10;;;;;;;10.53;7.00;;;7.60;99.90;;;;;;5026764;28;20197;-86
2022/11/26 04:19:37;;;;;;;10.17;6.80;;;7.50;99.90;;;;;;5023781;28;20209;-86
2022/11/26 04:22:02;;;;;;;10.03;6.63;;;7.50;99.90;;;;;;5003725;28;20277;-86
2022/11/26 04:24:28;;;;;;;10.57;6.23;;;7.50;99.90;;;;;;5024651;28;20589;-86
2022/11/26 04:26:54;;;;;;;9.97;5.73;;;7.50;99.90;;;;;;5025793;28;20182;-86
2022/11/26 04:29:19;;;;;;;6.83;5.80;;;7.50;99.90;;;;;;5027086;28;20243;-86
2022/11/26 04:31:45;;;;;;;11.97;6.40;;;7.50;99.90;;;;;;5027479;28;20204;-85
2022/11/26 04:34:11;;;;;;;7.77;5.93;;;7.40;99.90;;;;;;5027453;28;20185;-87
2022/11/26 04:36:38;;;;;;;7.20;5.87;;;7.50;99.90;;;;;;5024146;28;20193;-85
2022/11/26 04:39:03;;;;;;;7.13;5.73;;;7.40;99.90;;;;;;5027591;28;20228;-85
2022/11/26 04:41:29;;;;;;;9.73;6.27;;;7.30;99.90;;;;;;5009043;28;20209;-86
2022/11/26 04:43:55;;;;;;;7.07;5.10;;;7.40;99.90;;;;;;5026934;28;20221;-86
2022/11/26 04:46:20;;;;;;;10.03;6.13;;;7.40;99.90;;;;;;5024744;28;20281;-85
2022/11/26 04:48:46;;;;;;;8.40;5.97;;;7.40;99.90;;;;;;5026430;28;20199;-85
2022/11/26 04:51:12;;;;;;;7.87;5.93;;;7.40;99.90;;;;;;5027611;28;20243;-86
2022/11/26 04:53:37;;;;;;;9.90;5.67;;;7.40;99.90;;;;;;5026163;28;20590;-86
2022/11/26 04:56:03;;;;;;;7.73;5.67;;;7.40;99.90;;;;;;5009516;28;20193;-86
2022/11/26 04:58:29;;;;;;;7.77;5.80;;;7.40;99.90;;;;;;5026437;28;20625;-85
2022/11/26 05:00:54;;;;;;;6.03;5.27;;;7.40;99.90;;;;;;5028729;28;20214;-85
2022/11/26 05:03:20;;;;;;;8.47;5.93;;;7.40;99.90;;;;;;5027725;28;20200;-85
2022/11/26 05:05:46;;;;;;;9.40;5.73;;;7.40;99.90;;;;;;5027984;28;20186;-85
2022/11/26 05:08:12;;;;;;;8.57;5.37;;;7.40;99.90;;;;;;5026630;28;20190;-85
2022/11/26 05:10:37;;;;;;;8.37;6.03;;;7.40;99.90;;;;;;5026176;28;20228;-85
2022/11/26 05:13:03;;;;;;;9.93;5.90;;;7.40;99.90;;;;;;5026896;28;20193;-85
2022/11/26 05:15:29;;;;;;;7.87;5.80;;;7.30;99.90;;;;;;5027581;28;20203;-85
2022/11/26 05:17:54;;;;;;;6.10;5.33;;;7.20;99.90;;;;;;5027519;28;20189;-85
2022/11/26 05:20:20;;;;;;;7.90;6.50;;;7.30;99.90;;;;;;5027493;28;20221;-84
2022/11/26 05:22:46;;;;;;;15.07;10.13;;;7.20;99.90;;;;;;5028074;28;20193;-86
2022/11/26 05:25:11;;;;;;;10.77;9.30;;;7.20;99.90;;;;;;5026419;28;20193;-86
2022/11/26 05:27:37;;;;;;;11.27;10.20;;;7.20;99.90;;;;;;5042610;28;20173;-86
2022/11/26 05:30:04;;;;;;;16.20;12.53;;;7.20;99.90;;;;;;5009174;28;20193;-85
2022/11/26 05:32:30;;;;;;;9.77;8.90;;;7.20;99.90;;;;;;5026177;28;20209;-86
2022/11/26 05:34:55;;;;;;;11.07;9.90;;;7.30;99.90;;;;;;5026710;28;20232;-86
2022/11/26 05:37:21;;;;;;;12.00;9.50;;;7.30;99.90;;;;;;5025908;28;20236;-85
2022/11/26 05:39:47;;;;;;;11.97;8.50;;;7.20;99.90;;;;;;5026892;28;20258;-86
2022/11/26 05:42:14;;;;;;;12.13;8.27;;;7.20;99.90;;;;;;5026285;28;20277;-86
2022/11/26 05:44:40;;;;;;;9.20;7.23;;;7.20;99.90;;;;;;5025717;28;20207;-86
2022/11/26 05:47:06;;;;;;;9.23;7.20;;;7.20;99.90;;;;;;5025977;28;20247;-86
2022/11/26 05:49:32;;;;;;;7.60;6.13;;;7.20;99.90;;;;;;5026416;28;20338;-87
2022/11/26 05:51:58;;;;;;;9.87;5.97;;;7.20;99.90;;;;;;5025383;28;20244;-85
2022/11/26 05:54:24;;;;;;;7.23;5.90;;;7.20;99.90;;;;;;5026821;28;20210;-87
2022/11/26 05:56:50;;;;;;;8.20;6.53;;;7.30;99.90;;;;;;5025922;28;20220;-86
2022/11/26 05:59:15;;;;;;;8.30;6.10;;;7.30;99.90;;;;;;5024506;28;20232;-85
2022/11/26 06:01:41;;;;;;;7.30;6.53;;;7.30;99.90;;;;;;5026440;28;20212;-85
2022/11/26 06:04:07;;;;;;;9.30;6.00;;;7.20;99.90;;;;;;5026861;28;20262;-86
2022/11/26 06:06:32;;;;;;;7.63;6.27;;;7.30;99.90;;;;;;5025261;28;20253;-86
2022/11/26 06:08:58;;;;;;;10.97;6.30;;;7.30;99.90;;;;;;5025706;28;20209;-85
2022/11/26 06:11:24;;;;;;;8.33;6.60;;;7.10;99.90;;;;;;5026621;28;20377;-87
2022/11/26 06:13:49;;;;;;;12.00;6.70;;;7.00;99.90;;;;;;5026528;28;20193;-85
2022/11/26 06:16:15;;;;;;;10.80;7.30;;;7.00;99.90;;;;;;5026086;28;20193;-87
2022/11/26 06:18:41;;;;;;;11.47;6.50;;;7.00;99.90;;;;;;5026557;28;20185;-85
2022/11/26 06:21:07;;;;;;;9.67;6.47;;;7.10;99.90;;;;;;5027296;28;20227;-87
2022/11/26 06:23:33;;;;;;;8.87;7.43;;;7.00;99.90;;;;;;5025528;28;20190;-85
2022/11/26 06:25:59;;;;;;;14.27;7.23;;;6.90;99.90;;;;;;5026170;28;20236;-86
2022/11/26 06:28:25;;;;;;;11.27;7.00;;;6.80;99.90;;;;;;5026924;28;20201;-85
2022/11/26 06:30:51;;;;;;;10.50;7.17;;;6.80;99.90;;;;;;5025140;28;20283;-85
2022/11/26 06:33:17;;;;;;;9.93;8.27;;;6.80;99.90;;;;;;5026422;28;20190;-86
2022/11/26 06:35:43;;;;;;;13.87;8.10;;;6.70;99.90;;;;;;5025360;28;20196;-85
2022/11/26 06:38:09;;;;;;;13.23;8.83;;;6.60;99.90;;;;;;5026143;28;20190;-85
2022/11/26 06:40:35;;;;;;;11.83;8.80;;;6.60;99.90;;;;;;5026041;28;20289;-86
2022/11/26 06:43:00;;;;;;;18.13;9.23;;;6.60;99.90;;;;;;5028205;28;20713;-86
2022/11/26 06:45:26;;;;;;;11.63;8.00;;;6.40;99.90;;;;;;5028488;28;20256;-85
2022/11/26 06:47:52;;;;;;;15.57;8.97;;;6.40;99.90;;;;;;5029510;28;20192;-85
2022/11/26 06:50:19;;;;;;;14.07;9.00;;;6.30;99.90;;;;;;5028630;28;20186;-84
2022/11/26 06:52:45;;;;;;;16.73;9.00;;;6.30;99.90;;;;;;5028514;28;20208;-85
2022/11/26 06:55:11;;;;;;;10.90;8.50;;;6.30;99.90;;;;;;5030303;28;20174;-86
2022/11/26 06:57:37;;;;;;;12.80;8.67;;;6.30;99.90;;;;;;5031681;28;20193;-87
2022/11/26 07:00:05;;;;;;;14.47;9.27;;;6.20;99.90;;;;;;5030123;28;20197;-86
2022/11/26 07:02:30;;;;;;;14.57;9.80;;;6.30;99.90;;;;;;5029916;28;20232;-87
2022/11/26 07:04:56;;;;;;;13.27;8.00;;;6.30;99.90;;;;;;5028961;28;20804;-86
2022/11/26 07:07:22;;;;;;;11.83;8.83;;;6.30;99.90;;;;;;5028824;28;20185;-86
2022/11/26 07:09:47;;;;;;;11.57;8.37;;;6.20;99.90;;;;;;5030392;28;20205;-85
2022/11/26 07:12:13;;;;;;;11.40;8.47;;;6.20;99.90;;;;;;5029156;28;20214;-86
2022/11/26 07:14:39;;;;;;;14.53;8.90;;;6.10;99.90;;;;;;5027349;28;20194;-86
2022/11/26 07:17:05;;;;;;;14.47;8.97;;;6.30;99.90;;;;;;5027624;28;20193;-86
2022/11/26 07:19:30;;;;;;;11.37;8.20;;;6.30;99.90;;;;;;5027862;28;20280;-86
2022/11/26 07:21:56;;;;;;;18.03;9.27;;;6.30;99.90;;;;;;5028906;28;20205;-86
2022/11/26 07:24:22;;;;;;;14.53;8.37;;;6.30;99.90;;;;;;5028696;28;20208;-86
2022/11/26 07:26:47;;;;;;;16.63;9.63;;;6.40;99.90;;;;;;5032287;28;20200;-86
2022/11/26 07:29:14;;;;;;;15.03;9.83;;;6.40;99.90;;;;;;5010391;28;20182;-86
2022/11/26 07:31:39;;;;;;;16.37;9.47;;;6.30;99.90;;;;;;5028442;28;20298;-86
2022/11/26 07:34:05;;;;;;;18.40;9.63;;;6.30;99.90;;;;;;5028689;28;20193;-87
2022/11/26 07:36:31;;;;;;;14.30;9.03;;;6.30;99.90;;;;;;5028580;28;20182;-87
2022/11/26 07:38:58;;;;;;;20.77;10.73;;;6.20;99.90;;;;;;5023393;28;20197;-87
2022/11/26 07:41:26;;;;;;;18.67;9.60;;;6.30;99.90;;;;;;5030011;28;20225;-87
2022/11/26 07:43:52;;;;;;;14.57;10.03;;;6.30;99.90;;;;;;5030329;28;20194;-87
2022/11/26 07:46:22;;;;;;;21.00;10.73;;;6.30;99.90;;;;;;5029882;28;20209;-86
2022/11/26 07:48:48;;;;;;;21.03;11.37;;;6.30;99.90;;;;;;5030081;28;20299;-86
2022/11/26 07:51:21;;;;;;;19.70;10.77;;;6.10;99.90;;;;;;5028708;28;20202;-87
2022/11/26 07:53:47;;;;;;;15.13;10.27;;;6.10;99.90;;;;;;5027667;28;20181;-86
2022/11/26 07:56:13;;;;;;;16.23;9.43;;;6.20;99.90;;;;;;5029893;28;20703;-85
2022/11/26 07:58:39;;;;;;;14.67;10.00;;;6.30;99.90;;;;;;5030111;28;20209;-86
2022/11/26 08:01:07;;;;;;;15.17;10.10;;;6.30;99.90;;;;;;5028556;28;20217;-85
2022/11/26 08:03:37;;;;;;;23.80;14.40;;;6.30;99.90;;;;;;5029772;28;20185;-85
2022/11/26 08:06:08;;;;;;;14.87;11.17;;;6.20;99.90;;;;;;5029124;28;20217;-85
2022/11/26 08:08:34;;;;;;;22.97;11.77;;;6.10;99.90;;;;;;5026712;28;20185;-86
2022/11/26 08:11:01;;;;;;;20.90;11.67;;;6.10;99.90;;;;;;5029443;28;20688;-86
2022/11/26 08:13:27;;;;;;;20.07;11.70;;;6.10;99.90;;;;;;5030095;28;20194;-86
2022/11/26 08:15:52;;;;;;;17.53;10.10;;;6.10;99.90;;;;;;5029724;28;20201;-86
2022/11/26 08:18:18;;;;;;;16.97;11.03;;;6.20;99.90;;;;;;5029988;28;20193;-85
2022/11/26 08:20:44;;;;;;;17.80;10.70;;;6.20;99.90;;;;;;5030628;28;20221;-85
2022/11/26 08:23:09;;;;;;;19.50;10.60;;;6.20;99.90;;;;;;5029260;28;20221;-86
2022/11/26 08:25:35;;;;;;;19.03;11.07;;;6.20;99.90;;;;;;5030041;28;20357;-86
2022/11/26 08:28:01;;;;;;;14.43;10.10;;;6.10;99.90;;;;;;5006429;28;20190;-86
2022/11/26 08:30:27;;;;;;;16.73;10.20;;;6.20;99.90;;;;;;5028960;28;20768;-86
2022/11/26 08:32:52;;;;;;;14.63;10.03;;;6.30;99.90;;;;;;5028640;28;20465;-87
2022/11/26 08:35:18;;;;;;;13.77;9.30;;;6.30;99.90;;;;;;5026469;28;20249;-87
2022/11/26 08:37:44;;;;;;;20.30;10.50;;;6.40;99.90;;;;;;5026360;28;20212;-85
2022/11/26 08:40:10;;;;;;;18.37;10.70;;;6.40;99.90;;;;;;5028221;28;20209;-87
2022/11/26 08:42:36;;;;;;;28.83;19.67;;;6.40;99.90;;;;;;5029714;28;20184;-85
2022/11/26 08:45:02;;;;;;;25.80;16.80;;;6.50;99.90;;;;;;5028750;28;20182;-85
2022/11/26 08:47:27;;;;;;;18.40;12.73;;;6.50;99.90;;;;;;5030739;28;20186;-86
2022/11/26 08:49:53;;;;;;;20.70;10.37;;;6.60;99.90;;;;;;5028144;28;20582;-86
2022/11/26 08:52:19;;;;;;;21.57;14.30;;;6.70;99.90;;;;;;5027236;28;20288;-86
2022/11/26 08:54:44;;;;;;;21.27;11.67;;;6.70;99.90;;;;;;5028611;28;20205;-86
2022/11/26 08:57:10;;;;;;;19.43;14.53;;;6.60;99.90;;;;;;5026793;28;20272;-86
2022/11/26 08:59:36;;;;;;;20.20;11.93;;;6.70;99.90;;;;;;5027098;28;20208;-86
2022/11/26 09:02:02;;;;;;;21.67;13.00;;;6.70;99.90;;;;;;5016065;28;20565;-87
2022/11/26 09:04:27;;;;;;;20.00;11.27;;;6.80;99.90;;;;;;5028615;28;20233;-86
2022/11/26 09:06:53;;;;;;;15.50;10.97;;;6.80;99.90;;;;;;5027445;28;20217;-86
2022/11/26 09:09:19;;;;;;;18.50;11.63;;;6.90;99.90;;;;;;5013751;28;20644;-86
2022/11/26 09:11:56;;;;;;;17.03;11.43;;;7.00;99.90;;;;;;5027924;28;20201;-85
2022/11/26 09:14:24;;;;;;;19.20;11.57;;;7.00;99.90;;;;;;5026755;28;20671;-86
2022/11/26 09:16:50;;;;;;;14.63;10.43;;;6.90;99.90;;;;;;5013594;28;20186;-86
2022/11/26 09:19:17;;;;;;;18.20;11.97;;;7.10;99.90;;;;;;5029207;28;20195;-86
2022/11/26 09:21:43;;;;;;;13.30;9.97;;;7.30;99.90;;;;;;5026298;28;20212;-87
2022/11/26 09:24:09;;;;;;;19.53;15.30;;;7.40;99.90;;;;;;5015021;28;20194;-86
2022/11/26 09:26:35;;;;;;;20.33;15.07;;;7.40;99.90;;;;;;5031437;28;20181;-87
2022/11/26 09:29:01;;;;;;;17.43;10.27;;;7.20;99.90;;;;;;5030126;28;20181;-85
2022/11/26 09:31:28;;;;;;;13.17;8.17;;;7.40;99.90;;;;;;5027431;28;20786;-85
2022/11/26 09:33:58;;;;;;;19.77;11.90;;;7.50;99.90;;;;;;5029770;28;20193;-85
2022/11/26 09:36:25;;;;;;;16.10;9.07;;;7.50;99.90;;;;;;5029557;28;20205;-85
2022/11/26 09:38:55;;;;;;;14.33;8.57;;;7.60;99.90;;;;;;5028807;28;20208;-86
2022/11/26 09:41:35;;;;;;;17.10;8.03;;;7.80;99.90;;;;;;5027206;28;20244;-86
2022/11/26 09:44:38;;;;;;;15.87;7.40;;;8.10;99.90;;;;;;5026194;28;20181;-86
2022/11/26 09:47:15;;;;;;;13.40;7.10;;;8.10;99.90;;;;;;5020205;28;20185;-85
2022/11/26 09:50:12;;;;;;;11.37;8.10;;;7.90;99.90;;;;;;5027561;28;20181;-84
2022/11/26 09:52:43;;;;;;;13.70;7.17;;;8.00;99.90;;;;;;5026361;28;20239;-85
2022/11/26 09:55:17;;;;;;;15.93;7.63;;;8.10;99.90;;;;;;5024897;28;20201;-83
2022/11/26 09:57:50;;;;;;;11.80;7.57;;;7.90;99.90;;;;;;5026726;28;20253;-84
2022/11/26 10:00:22;;;;;;;11.77;7.37;;;7.80;99.90;;;;;;5006768;28;20762;-84
2022/11/26 10:02:51;;;;;;;18.20;7.57;;;7.80;99.90;;;;;;5022906;28;20181;-86
2022/11/26 10:05:17;;;;;;;13.97;7.00;;;8.00;99.90;;;;;;5026528;28;20173;-83
2022/11/26 10:07:42;;;;;;;20.20;8.30;;;8.30;99.90;;;;;;5028526;28;20212;-82
2022/11/26 10:10:14;;;;;;;12.10;6.90;;;8.30;99.90;;;;;;5027073;28;20189;-83
2022/11/26 10:12:43;;;;;;;9.07;5.93;;;8.40;99.90;;;;;;5005453;28;20192;-81
2022/11/26 10:15:30;;;;;;;10.67;5.83;;;8.50;99.90;;;;;;5003872;28;20233;-81
2022/11/26 10:18:14;;;;;;;11.10;6.23;;;8.40;99.90;;;;;;5026201;28;20220;-80
2022/11/26 10:21:04;;;;;;;11.10;6.30;;;8.50;99.90;;;;;;5020227;28;20232;-82
2022/11/26 10:23:36;;;;;;;14.23;8.00;;;8.60;99.90;;;;;;5026879;28;20570;-83
2022/11/26 10:26:11;;;;;;;12.00;7.60;;;8.70;99.90;;;;;;5027915;28;20200;-84
2022/11/26 10:28:45;;;;;;;13.43;7.00;;;8.70;99.90;;;;;;5011055;28;20197;-82
2022/11/26 10:31:20;;;;;;;15.50;6.93;;;8.70;99.90;;;;;;5026419;28;20209;-80
2022/11/26 10:34:00;;;;;;;12.53;7.63;;;8.70;99.90;;;;;;5026822;28;20203;-82
2022/11/26 10:36:40;;;;;;;10.60;7.63;;;8.60;99.90;;;;;;5029005;28;20197;-81
2022/11/26 10:39:11;;;;;;;10.73;7.13;;;8.50;99.90;;;;;;5026897;28;20247;-80
2022/11/26 10:41:37;;;;;;;10.73;6.47;;;8.50;99.90;;;;;;5025868;28;20210;-83
2022/11/26 10:44:33;;;;;;;14.20;7.50;;;8.70;99.90;;;;;;5019301;28;20186;-83
2022/11/26 10:47:20;;;;;;;11.10;6.77;;;9.00;99.90;;;;;;5016052;28;20236;-83
2022/11/26 10:49:47;;;;;;;12.90;7.20;;;9.00;99.90;;;;;;5022763;28;20196;-83
2022/11/26 10:52:26;;;;;;;17.17;6.63;;;9.20;99.90;;;;;;5019698;28;20663;-84
2022/11/26 10:55:16;;;;;;;10.73;6.60;;;9.10;99.90;;;;;;4997184;28;20197;-81
2022/11/26 10:57:49;;;;;;;9.47;6.57;;;8.70;99.90;;;;;;5023365;28;20234;-82
2022/11/26 11:00:37;;;;;;;12.47;6.03;;;9.00;99.90;;;;;;5023280;28;20201;-83
2022/11/26 11:03:11;;;;;;;9.83;6.40;;;9.30;99.90;;;;;;5024111;28;20189;-84
2022/11/26 11:05:37;;;;;;;12.73;7.10;;;9.60;99.90;;;;;;5023454;28;20239;-83
2022/11/26 11:08:02;;;;;;;11.77;7.17;;;9.90;99.90;;;;;;5024082;28;20201;-83
2022/11/26 11:10:28;;;;;;;13.20;7.03;;;10.20;97.20;;;;;;5024725;28;20274;-84
2022/11/26 11:13:11;;;;;;;18.83;10.40;;;10.00;99.90;;;;;;5024159;28;20259;-83
2022/11/26 11:15:39;;;;;;;14.50;7.63;;;10.20;98.30;;;;;;5025894;28;20214;-83
2022/11/26 11:18:21;;;;;;;10.50;5.77;;;10.30;97.10;;;;;;5027219;28;20190;-82
2022/11/26 11:20:56;;;;;;;10.80;5.93;;;10.40;94.70;;;;;;5023189;28;20219;-81
2022/11/26 11:23:27;;;;;;;9.70;5.70;;;10.40;95.50;;;;;;5026620;28;20680;-81
2022/11/26 11:26:06;;;;;;;10.33;6.17;;;10.40;97.00;;;;;;5028455;28;20182;-80
2022/11/26 11:28:35;;;;;;;10.40;6.63;;;10.40;95.60;;;;;;5025591;28;20184;-82
2022/11/26 11:31:16;;;;;;;12.77;6.90;;;10.50;94.80;;;;;;5026384;28;20203;-84
2022/11/26 11:33:42;;;;;;;10.73;6.63;;;10.70;93.70;;;;;;5023197;28;20201;-82
2022/11/26 11:36:12;;;;;;;11.87;6.60;;;10.70;95.00;;;;;;5024371;28;20184;-83
2022/11/26 11:39:01;;;;;;;10.67;6.70;;;10.70;95.10;;;;;;4998646;28;20195;-84
2022/11/26 11:41:29;;;;;;;8.50;5.67;;;10.80;94.50;;;;;;5025696;28;20256;-81
2022/11/26 11:44:11;;;;;;;9.37;6.00;;;10.60;95.10;;;;;;5025150;28;20191;-82
2022/11/26 11:46:46;;;;;;;7.67;5.67;;;10.30;95.90;;;;;;5020478;28;20189;-82
2022/11/26 11:49:51;;;;;;;11.20;6.07;;;10.60;94.60;;;;;;5026834;28;20186;-84
2022/11/26 11:52:34;;;;;;;9.73;5.93;;;10.90;93.10;;;;;;5012087;28;20219;-83
2022/11/26 11:55:09;;;;;;;10.90;6.60;;;10.80;93.30;;;;;;4997692;28;20271;-84
2022/11/26 11:57:37;;;;;;;10.10;6.33;;;10.70;95.40;;;;;;5020249;28;20178;-83
2022/11/26 12:00:18;;;;;;;9.13;5.73;;;11.20;92.40;;;;;;5019476;28;20223;-81
2022/11/26 12:03:15;;;;;;;7.93;5.80;;;11.50;91.00;;;;;;5022679;28;20242;-83
2022/11/26 12:06:08;;;;;;;8.57;5.50;;;11.80;88.00;;;;;;5020535;28;20203;-84
2022/11/26 12:08:52;;;;;;;13.63;6.40;;;11.80;87.40;;;;;;5020368;28;20235;-81
2022/11/26 12:11:35;;;;;;;14.93;6.57;;;11.60;88.60;;;;;;5022187;28;20296;-83
2022/11/26 12:14:12;;;;;;;7.73;5.67;;;11.50;88.80;;;;;;5023029;28;20181;-81
2022/11/26 12:16:41;;;;;;;7.87;5.57;;;11.20;91.80;;;;;;5021322;28;20185;-83
2022/11/26 12:19:23;;;;;;;10.87;6.17;;;11.20;90.40;;;;;;5023062;28;20189;-84
2022/11/26 12:21:56;;;;;;;8.83;6.23;;;11.20;91.50;;;;;;5020541;28;20208;-84
2022/11/26 12:25:03;;;;;;;9.73;5.67;;;11.10;91.50;;;;;;5020268;28;20197;-83
2022/11/26 12:27:46;;;;;;;9.37;5.87;;;11.50;88.90;;;;;;4972574;28;20189;-84
2022/11/26 12:30:19;;;;;;;11.30;5.83;;;11.50;88.80;;;;;;5023700;28;20335;-83
2022/11/26 12:33:00;;;;;;;8.33;5.33;;;11.80;87.50;;;;;;5016867;28;20398;-83
2022/11/26 12:35:28;;;;;;;8.80;5.03;;;12.30;85.00;;;;;;5021986;28;20209;-84
2022/11/26 12:37:59;;;;;;;8.67;5.40;;;12.40;83.80;;;;;;5024072;28;20189;-84
2022/11/26 12:40:40;;;;;;;7.60;5.07;;;12.40;81.60;;;;;;5022332;28;20213;-83
2022/11/26 12:43:24;;;;;;;8.77;4.87;;;12.20;83.20;;;;;;5022151;28;20839;-81
2022/11/26 12:46:30;;;;;;;10.17;5.40;;;12.20;84.80;;;;;;5022797;28;20260;-83
2022/11/26 12:49:01;;;;;;;10.80;5.50;;;12.30;84.00;;;;;;5008433;28;20225;-83
2022/11/26 12:51:49;;;;;;;9.07;5.70;;;12.20;82.60;;;;;;5023026;28;20728;-83
2022/11/26 12:54:22;;;;;;;8.57;5.80;;;12.10;82.50;;;;;;5022420;28;20220;-83
2022/11/26 12:57:09;;;;;;;8.47;5.17;;;11.80;85.80;;;;;;5024816;28;20554;-83
2022/11/26 12:59:49;;;;;;;7.83;4.90;;;11.80;85.60;;;;;;5020756;28;20177;-84
2022/11/26 13:02:22;;;;;;;8.53;5.67;;;11.60;87.90;;;;;;5023957;28;20201;-84